createdAt,value
2023-03-30T00:02:26.148Z,5.06
2023-03-30T00:05:03.281Z,5.08
2023-03-30T00:07:38.227Z,5.09
2023-03-30T00:10:11.414Z,5.11
2023-03-30T00:12:47.200Z,5.12
2023-03-30T00:15:21.657Z,5.12
2023-03-30T00:17:55.341Z,5.14
2023-03-30T00:20:28.185Z,5.15
2023-03-30T00:23:00.716Z,5.15
2023-03-30T00:25:33.083Z,5.17
2023-03-30T00:28:05.041Z,5.17
2023-03-30T00:30:37.191Z,5.17
2023-03-30T00:33:09.227Z,5.17
2023-03-30T00:35:41.883Z,5.17
2023-03-30T00:38:14.029Z,5.16
2023-03-30T00:40:53.842Z,5.15
2023-03-30T00:43:27.988Z,5.15
2023-03-30T00:46:00.174Z,5.14
2023-03-30T00:48:36.479Z,5.16
2023-03-30T00:51:14.103Z,5.17
2023-03-30T00:53:49.086Z,5.16
2023-03-30T00:56:27.165Z,5.16
2023-03-30T00:58:59.378Z,5.17
2023-03-30T01:01:38.637Z,5.15
2023-03-30T01:04:12.158Z,5.14
2023-03-30T01:06:46.464Z,5.13
2023-03-30T01:09:19.416Z,5.12
2023-03-30T01:11:52.100Z,5.12
2023-03-30T01:14:24.557Z,5.11
2023-03-30T01:17:03.673Z,5.13
2023-03-30T01:19:56.914Z,5.14
2023-03-30T01:22:47.699Z,5.14
2023-03-30T01:25:52.906Z,5.15
2023-03-30T01:28:38.360Z,5.17
2023-03-30T01:31:33.400Z,5.19
2023-03-30T01:34:25.798Z,5.20
2023-03-30T01:37:28.506Z,5.21
2023-03-30T01:40:09.983Z,5.23
2023-03-30T01:42:48.157Z,5.24
2023-03-30T01:45:28.780Z,5.25
2023-03-30T01:48:02.949Z,5.24
2023-03-30T01:50:41.859Z,5.25
2023-03-30T01:53:19.892Z,5.26
2023-03-30T01:55:57.770Z,5.27
2023-03-30T01:58:36.143Z,5.24
2023-03-30T02:01:10.471Z,5.25
2023-03-30T02:03:47.299Z,5.25
2023-03-30T02:06:26.996Z,5.25
2023-03-30T02:09:01.145Z,5.26
2023-03-30T02:11:35.241Z,5.28
2023-03-30T02:14:09.965Z,5.30
2023-03-30T02:16:46.243Z,5.31
2023-03-30T02:19:18.334Z,5.33
2023-03-30T02:21:50.990Z,5.33
2023-03-30T02:24:27.106Z,5.34
2023-03-30T02:27:02.758Z,5.35
2023-03-30T02:29:42.349Z,5.34
2023-03-30T02:32:20.243Z,5.34
2023-03-30T02:35:10.414Z,5.35
2023-03-30T02:38:06.356Z,5.36
2023-03-30T02:40:52.754Z,5.37
2023-03-30T02:43:39.103Z,5.36
2023-03-30T02:46:24.817Z,5.35
2023-03-30T02:49:09.448Z,5.35
2023-03-30T02:51:48.285Z,5.37
2023-03-30T02:54:33.797Z,5.39
2023-03-30T02:57:34.325Z,5.41
2023-03-30T03:00:33.586Z,5.41
2023-03-30T03:03:12.551Z,5.41
2023-03-30T03:05:45.329Z,5.40
2023-03-30T03:08:25.473Z,5.41
2023-03-30T03:10:58.608Z,5.41
2023-03-30T03:13:32.342Z,5.43
2023-03-30T03:16:05.505Z,5.42
2023-03-30T03:18:40.096Z,5.44
2023-03-30T03:21:14.090Z,5.44
2023-03-30T03:23:48.539Z,5.43
2023-03-30T03:26:22.841Z,5.42
2023-03-30T03:28:55.236Z,5.43
2023-03-30T03:31:28.644Z,5.43
2023-03-30T03:34:00.923Z,5.44
2023-03-30T03:36:53.496Z,5.44
2023-03-30T03:39:27.142Z,5.46
2023-03-30T03:42:05.661Z,5.47
2023-03-30T03:44:40.591Z,5.48
2023-03-30T03:47:16.010Z,5.48
2023-03-30T03:49:50.139Z,5.48
2023-03-30T03:52:22.334Z,5.49
2023-03-30T03:54:54.831Z,5.50
2023-03-30T03:57:27.802Z,5.50
2023-03-30T04:00:00.112Z,5.51
2023-03-30T04:02:32.377Z,5.52
2023-03-30T04:05:04.825Z,5.53
2023-03-30T04:07:37.053Z,5.55
2023-03-30T04:10:15.050Z,5.57
2023-03-30T04:13:22.273Z,5.59
2023-03-30T04:16:20.679Z,5.60
2023-03-30T04:19:01.474Z,5.60
2023-03-30T04:21:53.191Z,5.62
2023-03-30T04:25:01.113Z,5.62
2023-03-30T04:27:52.555Z,5.64
2023-03-30T04:30:59.015Z,5.66
2023-03-30T04:33:53.289Z,5.68
2023-03-30T04:36:58.168Z,5.68
2023-03-30T04:39:30.447Z,5.68
2023-03-30T04:42:30.251Z,5.70
2023-03-30T04:45:25.006Z,5.71
2023-03-30T04:48:14.168Z,5.72
2023-03-30T04:50:50.675Z,5.73
2023-03-30T04:53:43.001Z,5.76
2023-03-30T04:56:33.486Z,5.78
2023-03-30T04:59:26.634Z,5.81
2023-03-30T05:02:31.417Z,5.82
2023-03-30T05:05:26.344Z,5.83
2023-03-30T05:08:18.605Z,5.88
2023-03-30T05:11:14.013Z,5.91
2023-03-30T05:14:08.802Z,5.95
2023-03-30T05:16:59.869Z,5.99
2023-03-30T05:20:08.575Z,6.01
2023-03-30T05:23:11.248Z,6.03
2023-03-30T05:26:04.077Z,6.06
2023-03-30T05:28:55.489Z,6.09
2023-03-30T05:31:46.384Z,6.10
2023-03-30T05:34:42.131Z,6.13
2023-03-30T05:37:37.340Z,6.15
2023-03-30T05:40:47.762Z,6.20
2023-03-30T05:43:41.106Z,6.24
2023-03-30T05:46:13.287Z,6.28
2023-03-30T05:49:18.726Z,6.32
2023-03-30T05:52:11.765Z,6.36
2023-03-30T05:55:02.178Z,6.45
2023-03-30T05:57:50.051Z,6.51
2023-03-30T06:00:33.393Z,6.58
2023-03-30T06:03:10.380Z,6.66
2023-03-30T06:05:43.886Z,6.74
2023-03-30T06:08:20.072Z,6.82
2023-03-30T06:10:57.827Z,6.89
2023-03-30T06:13:32.595Z,6.96
2023-03-30T06:16:05.282Z,7.05
2023-03-30T06:18:37.314Z,7.12
2023-03-30T06:21:14.043Z,7.19
2023-03-30T06:24:15.772Z,7.30
2023-03-30T06:26:48.686Z,7.38
2023-03-30T06:29:21.051Z,7.43
2023-03-30T06:31:53.437Z,7.49
2023-03-30T06:35:00.817Z,7.61
2023-03-30T06:37:34.355Z,7.65
2023-03-30T06:40:13.567Z,7.71
2023-03-30T06:42:47.135Z,7.78
2023-03-30T06:45:27.867Z,7.85
2023-03-30T06:48:00.490Z,7.91
2023-03-30T06:50:33.311Z,7.95
2023-03-30T06:53:18.359Z,7.96
2023-03-30T06:55:57.088Z,7.99
2023-03-30T06:58:31.490Z,8.03
2023-03-30T07:01:12.087Z,8.10
2023-03-30T07:04:13.473Z,8.18
2023-03-30T07:07:05.625Z,8.20
2023-03-30T07:09:54.057Z,8.25
2023-03-30T07:12:27.228Z,8.26
2023-03-30T07:14:59.808Z,8.28
2023-03-30T07:17:32.765Z,8.28
2023-03-30T07:20:06.339Z,8.28
2023-03-30T07:22:40.003Z,8.24
2023-03-30T07:25:12.687Z,8.18
2023-03-30T07:27:45.409Z,8.16
2023-03-30T07:30:22.862Z,8.21
2023-03-30T07:32:58.899Z,8.26
2023-03-30T07:35:31.156Z,8.34
2023-03-30T07:38:04.244Z,8.49
2023-03-30T07:40:43.692Z,8.77
2023-03-30T07:43:16.485Z,8.98
2023-03-30T07:45:49.490Z,9.12
2023-03-30T07:48:28.320Z,9.39
2023-03-30T07:51:05.196Z,9.80
2023-03-30T07:53:39.146Z,10.34
2023-03-30T07:56:18.585Z,11.31
2023-03-30T07:58:52.751Z,11.86
2023-03-30T08:01:25.618Z,12.26
2023-03-30T08:04:14.601Z,12.22
2023-03-30T08:06:47.660Z,12.23
2023-03-30T08:09:21.126Z,12.09
2023-03-30T08:11:53.305Z,11.95
2023-03-30T08:14:27.387Z,11.80
2023-03-30T08:16:59.532Z,11.71
2023-03-30T08:19:32.816Z,12.04
2023-03-30T08:22:05.139Z,12.38
2023-03-30T08:24:38.025Z,12.72
2023-03-30T08:27:10.864Z,12.98
2023-03-30T08:29:46.018Z,12.93
2023-03-30T08:32:18.402Z,12.83
2023-03-30T08:34:52.371Z,12.52
2023-03-30T08:37:25.191Z,12.30
2023-03-30T08:39:57.268Z,12.08
2023-03-30T08:42:48.178Z,11.87
2023-03-30T08:45:20.811Z,11.67
2023-03-30T08:47:54.370Z,11.60
2023-03-30T08:50:34.423Z,11.70
2023-03-30T08:53:08.345Z,11.83
2023-03-30T08:55:44.640Z,11.85
2023-03-30T08:58:27.337Z,11.89
2023-03-30T09:01:09.433Z,12.04
2023-03-30T09:03:46.742Z,12.21
2023-03-30T09:06:26.803Z,12.46
2023-03-30T09:08:59.058Z,12.92
2023-03-30T09:11:35.748Z,13.73
2023-03-30T09:14:16.690Z,14.73
2023-03-30T09:16:55.193Z,14.83
2023-03-30T09:19:36.766Z,14.57
2023-03-30T09:22:14.940Z,14.26
2023-03-30T09:24:47.378Z,13.95
2023-03-30T09:27:27.163Z,13.55
2023-03-30T09:30:04.905Z,13.18
2023-03-30T09:32:47.913Z,13.16
2023-03-30T09:35:26.182Z,13.51
2023-03-30T09:37:58.361Z,14.13
2023-03-30T09:40:47.505Z,15.29
2023-03-30T09:43:26.740Z,16.44
2023-03-30T09:46:03.623Z,18.32
2023-03-30T09:48:42.671Z,19.42
2023-03-30T09:51:25.279Z,19.10
2023-03-30T09:54:03.811Z,18.37
2023-03-30T09:56:47.057Z,18.24
2023-03-30T09:59:35.443Z,18.37
2023-03-30T10:02:21.673Z,18.91
2023-03-30T10:05:03.481Z,19.89
2023-03-30T10:07:37.984Z,19.79
2023-03-30T10:10:28.609Z,19.41
2023-03-30T10:13:09.488Z,19.36
2023-03-30T10:15:53.543Z,19.25
2023-03-30T10:18:39.098Z,19.05
2023-03-30T10:21:22.846Z,19.14
2023-03-30T10:24:09.690Z,18.81
2023-03-30T10:26:45.993Z,17.85
2023-03-30T10:29:21.881Z,17.26
2023-03-30T10:31:59.133Z,17.54
2023-03-30T10:34:38.401Z,17.83
2023-03-30T10:37:16.267Z,17.88
2023-03-30T10:39:49.805Z,17.59
2023-03-30T10:42:26.615Z,17.20
2023-03-30T10:45:01.644Z,16.82
2023-03-30T10:47:46.178Z,16.63
2023-03-30T10:50:28.727Z,17.31
2023-03-30T10:53:13.983Z,18.11
2023-03-30T10:55:56.724Z,18.35
2023-03-30T10:58:43.048Z,18.50
2023-03-30T11:01:23.354Z,18.45
2023-03-30T11:04:02.727Z,17.99
2023-03-30T11:06:44.057Z,17.60
2023-03-30T11:09:26.158Z,17.45
2023-03-30T11:12:02.761Z,17.21
2023-03-30T11:14:42.748Z,16.88
2023-03-30T11:17:22.588Z,16.77
2023-03-30T11:19:57.456Z,16.80
2023-03-30T11:22:41.794Z,16.91
2023-03-30T11:25:21.456Z,16.97
2023-03-30T11:28:01.061Z,17.02
2023-03-30T11:30:35.024Z,17.07
2023-03-30T11:33:18.888Z,16.77
2023-03-30T11:35:54.705Z,16.36
2023-03-30T11:38:35.466Z,15.97
2023-03-30T11:41:14.733Z,15.61
2023-03-30T11:43:46.993Z,15.44
2023-03-30T11:46:24.565Z,15.24
2023-03-30T11:49:20.514Z,15.03
2023-03-30T11:52:04.583Z,14.87
2023-03-30T11:55:03.063Z,14.75
2023-03-30T11:57:44.091Z,14.57
2023-03-30T12:00:43.654Z,14.44
2023-03-30T12:03:43.191Z,14.32
2023-03-30T12:06:31.886Z,14.28
2023-03-30T12:09:27.599Z,14.26
2023-03-30T12:12:06.691Z,14.26
2023-03-30T12:14:49.031Z,14.25
2023-03-30T12:17:37.831Z,14.22
2023-03-30T12:20:19.368Z,14.21
2023-03-30T12:22:56.877Z,14.27
2023-03-30T12:25:36.416Z,14.37
2023-03-30T12:28:14.944Z,14.49
2023-03-30T12:30:59.523Z,14.56
2023-03-30T12:33:38.275Z,14.60
2023-03-30T12:36:26.245Z,14.56
2023-03-30T12:39:02.425Z,14.49
2023-03-30T12:41:44.644Z,14.39
2023-03-30T12:44:40.607Z,14.32
2023-03-30T12:47:27.956Z,14.26
2023-03-30T12:50:11.087Z,14.22
2023-03-30T12:52:53.993Z,14.20
2023-03-30T12:55:42.405Z,14.14
2023-03-30T12:58:48.698Z,14.12
2023-03-30T13:01:34.628Z,14.05
2023-03-30T13:04:10.776Z,14.00
2023-03-30T13:06:52.656Z,13.98
2023-03-30T13:09:52.597Z,13.99
2023-03-30T13:12:39.256Z,13.96
2023-03-30T13:15:36.031Z,13.90
2023-03-30T13:18:33.056Z,13.88
2023-03-30T13:21:24.067Z,13.92
2023-03-30T13:24:23.669Z,13.93
2023-03-30T13:26:55.559Z,13.92
2023-03-30T13:29:31.715Z,13.94
2023-03-30T13:32:16.628Z,13.92
2023-03-30T13:35:09.097Z,13.88
2023-03-30T13:38:03.055Z,13.86
2023-03-30T13:40:57.872Z,13.85
2023-03-30T13:43:50.511Z,13.84
2023-03-30T13:46:28.466Z,13.82
2023-03-30T13:49:15.737Z,13.81
2023-03-30T13:51:49.184Z,13.83
2023-03-30T13:54:26.654Z,13.82
2023-03-30T13:57:05.700Z,13.83
2023-03-30T13:59:41.518Z,13.82
2023-03-30T14:02:17.821Z,13.84
2023-03-30T14:04:50.582Z,13.87
2023-03-30T14:07:24.279Z,13.90
2023-03-30T14:10:16.096Z,13.90
2023-03-30T14:12:49.898Z,13.90
2023-03-30T14:15:29.189Z,13.89
2023-03-30T14:18:02.793Z,13.87
2023-03-30T14:20:50.150Z,13.87
2023-03-30T14:23:28.285Z,13.91
2023-03-30T14:26:03.472Z,13.94
2023-03-30T14:28:38.602Z,13.99
2023-03-30T14:31:17.241Z,13.98
2023-03-30T14:33:50.019Z,13.97
2023-03-30T14:36:23.107Z,13.96
2023-03-30T14:38:57.745Z,13.95
2023-03-30T14:41:31.644Z,13.93
2023-03-30T14:44:06.408Z,13.94
2023-03-30T14:46:43.040Z,13.93
2023-03-30T14:49:21.756Z,13.90
2023-03-30T14:52:00.801Z,13.87
2023-03-30T14:54:33.289Z,13.83
2023-03-30T14:57:07.797Z,13.79
2023-03-30T14:59:46.258Z,13.77
2023-03-30T15:02:22.402Z,13.77
2023-03-30T15:04:56.565Z,13.77
2023-03-30T15:07:33.192Z,13.74
2023-03-30T15:10:06.402Z,13.73
2023-03-30T15:12:41.916Z,13.73
2023-03-30T15:15:18.647Z,13.70
2023-03-30T15:17:52.385Z,13.67
2023-03-30T15:20:27.156Z,13.66
2023-03-30T15:23:00.905Z,13.63
2023-03-30T15:25:35.592Z,13.56
2023-03-30T15:28:10.660Z,13.45
2023-03-30T15:30:44.909Z,13.39
2023-03-30T15:33:28.100Z,13.35
2023-03-30T15:36:07.485Z,13.32
2023-03-30T15:38:47.656Z,13.28
2023-03-30T15:41:23.457Z,13.25
2023-03-30T15:44:00.496Z,13.23
2023-03-30T15:46:36.881Z,13.18
2023-03-30T15:49:11.882Z,13.13
2023-03-30T15:51:47.434Z,13.12
2023-03-30T15:54:22.627Z,13.07
2023-03-30T15:57:03.958Z,12.99
2023-03-30T15:59:41.320Z,12.90
2023-03-30T16:02:21.906Z,12.79
2023-03-30T16:04:52.487Z,12.66
2023-03-30T16:07:26.622Z,12.53
2023-03-30T16:09:58.645Z,12.44
2023-03-30T16:12:32.304Z,12.33
2023-03-30T16:15:04.916Z,12.21
2023-03-30T16:17:37.505Z,12.13
2023-03-30T16:20:17.671Z,12.06
2023-03-30T16:22:48.734Z,12.02
2023-03-30T16:25:21.337Z,11.99
2023-03-30T16:27:55.841Z,11.93
2023-03-30T16:30:31.172Z,11.85
2023-03-30T16:33:03.364Z,11.78
2023-03-30T16:35:37.664Z,11.69
2023-03-30T16:38:10.802Z,11.65
2023-03-30T16:40:44.766Z,11.58
2023-03-30T16:43:16.861Z,11.49
2023-03-30T16:45:49.065Z,11.41
2023-03-30T16:48:24.443Z,11.37
2023-03-30T16:50:57.548Z,11.33
2023-03-30T16:53:32.062Z,11.25
2023-03-30T16:56:04.156Z,11.16
2023-03-30T16:58:36.468Z,11.08
2023-03-30T17:01:13.382Z,11.01
2023-03-30T17:03:45.584Z,10.94
2023-03-30T17:06:17.637Z,10.87
2023-03-30T17:08:50.063Z,10.83
2023-03-30T17:11:22.107Z,10.76
2023-03-30T17:13:54.105Z,10.67
2023-03-30T17:16:29.310Z,10.61
2023-03-30T17:19:01.433Z,10.57
2023-03-30T17:21:33.423Z,10.54
2023-03-30T17:24:05.717Z,10.50
2023-03-30T17:26:37.985Z,10.42
2023-03-30T17:29:10.188Z,10.37
2023-03-30T17:31:46.092Z,10.34
2023-03-30T17:34:18.595Z,10.32
2023-03-30T17:36:50.753Z,10.30
2023-03-30T17:39:22.780Z,10.32
2023-03-30T17:41:54.826Z,10.33
2023-03-30T17:44:28.117Z,10.34
2023-03-30T17:47:00.615Z,10.32
2023-03-30T17:49:32.671Z,10.29
2023-03-30T17:52:04.726Z,10.26
2023-03-30T17:54:36.996Z,10.25
2023-03-30T17:57:09.901Z,10.24
2023-03-30T17:59:42.242Z,10.20
2023-03-30T18:02:15.087Z,10.18
2023-03-30T18:04:48.220Z,10.16
2023-03-30T18:07:20.993Z,10.14
2023-03-30T18:09:53.419Z,10.12
2023-03-30T18:12:25.931Z,10.09
2023-03-30T18:14:58.181Z,10.06
2023-03-30T18:17:30.485Z,10.03
2023-03-30T18:20:02.874Z,10.00
2023-03-30T18:22:36.753Z,9.95
2023-03-30T18:25:18.995Z,9.94
2023-03-30T18:27:58.028Z,9.94
2023-03-30T18:30:32.724Z,9.93
2023-03-30T18:33:06.810Z,9.90
2023-03-30T18:35:39.956Z,9.87
2023-03-30T18:38:13.532Z,9.84
2023-03-30T18:40:49.457Z,9.83
2023-03-30T18:43:21.964Z,9.81
2023-03-30T18:45:54.545Z,9.79
2023-03-30T18:48:26.714Z,9.77
2023-03-30T18:51:01.333Z,9.76
2023-03-30T18:53:33.669Z,9.76
2023-03-30T18:56:06.900Z,9.73
2023-03-30T18:58:42.140Z,9.72
2023-03-30T19:01:16.296Z,9.71
2023-03-30T19:03:49.589Z,9.70
2023-03-30T19:06:26.015Z,9.68
2023-03-30T19:08:58.393Z,9.64
2023-03-30T19:11:32.254Z,9.58
2023-03-30T19:14:04.590Z,9.57
2023-03-30T19:16:37.129Z,9.57
2023-03-30T19:19:14.920Z,9.57
2023-03-30T19:21:55.082Z,9.58
2023-03-30T19:24:27.189Z,9.56
2023-03-30T19:26:59.285Z,9.56
2023-03-30T19:29:31.289Z,9.54
2023-03-30T19:32:03.371Z,9.52
2023-03-30T19:34:35.477Z,9.53
2023-03-30T19:37:08.858Z,9.53
2023-03-30T19:39:43.664Z,9.55
2023-03-30T19:42:15.640Z,9.55
2023-03-30T19:44:47.614Z,9.56
2023-03-30T19:47:19.506Z,9.55
2023-03-30T19:49:51.487Z,9.53
2023-03-30T19:52:23.457Z,9.51
2023-03-30T19:54:55.757Z,9.50
2023-03-30T19:57:27.809Z,9.51
2023-03-30T20:00:00.251Z,9.52
2023-03-30T20:02:32.311Z,9.53
2023-03-30T20:05:04.596Z,9.52
2023-03-30T20:07:36.824Z,9.52
2023-03-30T20:10:12.330Z,9.52
2023-03-30T20:12:44.324Z,9.51
2023-03-30T20:15:17.691Z,9.51
2023-03-30T20:17:49.725Z,9.52
2023-03-30T20:20:25.639Z,9.52
2023-03-30T20:22:57.817Z,9.51
2023-03-30T20:25:29.896Z,9.51
2023-03-30T20:28:02.295Z,9.50
2023-03-30T20:30:34.337Z,9.51
2023-03-30T20:33:08.019Z,9.52
2023-03-30T20:35:43.729Z,9.50
2023-03-30T20:38:15.792Z,9.49
2023-03-30T20:40:57.125Z,9.48
2023-03-30T20:43:31.775Z,9.48
2023-03-30T20:46:05.717Z,9.47
2023-03-30T20:48:39.300Z,9.46
2023-03-30T20:51:13.913Z,9.45
2023-03-30T20:53:46.064Z,9.44
2023-03-30T20:56:18.661Z,9.43
2023-03-30T20:58:51.143Z,9.42
2023-03-30T21:01:26.480Z,9.42
2023-03-30T21:04:05.862Z,9.43
2023-03-30T21:06:38.159Z,9.42
2023-03-30T21:09:17.702Z,9.43
2023-03-30T21:11:50.601Z,9.43
2023-03-30T21:14:26.478Z,9.44
2023-03-30T21:16:58.493Z,9.46
2023-03-30T21:19:30.854Z,9.46
2023-03-30T21:22:03.461Z,9.47
2023-03-30T21:24:35.423Z,9.48
2023-03-30T21:27:07.424Z,9.48
2023-03-30T21:29:39.352Z,9.48
2023-03-30T21:32:11.376Z,9.47
2023-03-30T21:34:43.298Z,9.45
2023-03-30T21:37:15.527Z,9.44
2023-03-30T21:39:47.502Z,9.45
2023-03-30T21:42:19.447Z,9.46
2023-03-30T21:44:51.870Z,9.48
2023-03-30T21:47:23.877Z,9.50
2023-03-30T21:49:55.872Z,9.52
2023-03-30T21:52:28.958Z,9.53
2023-03-30T21:55:00.931Z,9.53
2023-03-30T21:57:34.331Z,9.54
2023-03-30T22:00:10.201Z,9.55
2023-03-30T22:02:44.434Z,9.56
2023-03-30T22:05:16.670Z,9.56
2023-03-30T22:07:48.648Z,9.55
2023-03-30T22:10:20.776Z,9.55
2023-03-30T22:12:52.857Z,9.54
2023-03-30T22:15:24.915Z,9.52
2023-03-30T22:17:57.220Z,9.51
2023-03-30T22:20:29.824Z,9.51
2023-03-30T22:23:02.042Z,9.51
2023-03-30T22:25:33.936Z,9.50
2023-03-30T22:28:08.746Z,9.49
2023-03-30T22:30:43.483Z,9.47
2023-03-30T22:33:17.404Z,9.46
2023-03-30T22:35:50.107Z,9.46
2023-03-30T22:38:22.207Z,9.44
2023-03-30T22:41:03.700Z,9.43
2023-03-30T22:43:37.641Z,9.43
2023-03-30T22:46:10.363Z,9.45
2023-03-30T22:48:42.694Z,9.46
2023-03-30T22:51:15.195Z,9.47
2023-03-30T22:53:47.160Z,9.50
2023-03-30T22:56:19.273Z,9.51
2023-03-30T22:58:51.673Z,9.52
2023-03-30T23:01:23.846Z,9.54
2023-03-30T23:03:55.970Z,9.55
2023-03-30T23:06:28.070Z,9.55
2023-03-30T23:09:01.573Z,9.56
2023-03-30T23:11:34.358Z,9.54
2023-03-30T23:14:06.303Z,9.54
2023-03-30T23:16:38.458Z,9.54
2023-03-30T23:19:11.434Z,9.55
2023-03-30T23:21:44.708Z,9.54
2023-03-30T23:24:16.642Z,9.53
2023-03-30T23:26:50.060Z,9.51
2023-03-30T23:29:22.138Z,9.51
2023-03-30T23:31:54.735Z,9.52
2023-03-30T23:34:27.086Z,9.53
2023-03-30T23:37:00.289Z,9.54
2023-03-30T23:39:32.950Z,9.52
2023-03-30T23:42:05.242Z,9.54
2023-03-30T23:44:37.292Z,9.55
2023-03-30T23:47:09.305Z,9.55
2023-03-30T23:49:41.732Z,9.57
2023-03-30T23:52:13.856Z,9.57
2023-03-30T23:54:46.024Z,9.58
2023-03-30T23:57:18.109Z,9.58
2023-03-30T23:59:50.173Z,9.59
